Time;durP1;ratioP1;P1;durP2;ratioP2;P2;SDS_P1;SDS_P2;PMS_P1;PMS_P2;Temp;Humidity;BMP_temperature;BMP_pressure;BME280_temperature;BME280_humidity;BME280_pressure;Samples;Min_cycle;Max_cycle;Signal;HPM_P1;HPM_P2
2021/01/11 00:00:11;;;;;;;5.07;3.63;;;;;;;3.82;100.00;96461.63;4897358;29;20204;-90
2021/01/11 00:02:39;;;;;;;1.47;1.37;;;;;;;3.93;100.00;96461.66;4897356;29;20204;-90
2021/01/11 00:05:06;;;;;;;0.53;0.53;;;;;;;4.08;100.00;96464.06;4897203;28;20708;-90
2021/01/11 00:07:33;;;;;;;0.93;0.87;;;;;;;4.26;100.00;96471.34;4897213;29;20209;-90
2021/01/11 00:10:00;;;;;;;2.33;2.13;;;;;;;4.38;100.00;96468.78;4896979;29;20235;-90
2021/01/11 00:12:27;;;;;;;1.00;1.00;;;;;;;4.62;100.00;96477.31;4896862;29;20247;-90
2021/01/11 00:14:54;;;;;;;1.27;0.70;;;;;;;4.95;100.00;96478.28;4897386;28;20204;-90
2021/01/11 00:17:22;;;;;;;1.40;1.17;;;;;;;5.09;100.00;96508.47;4896803;29;20200;-89
2021/01/11 00:19:48;;;;;;;1.20;1.00;;;;;;;4.97;100.00;96495.44;4896782;29;20196;-89
2021/01/11 00:22:15;;;;;;;2.33;1.67;;;;;;;5.05;100.00;96504.44;4896721;29;20728;-89
2021/01/11 00:24:42;;;;;;;1.67;1.57;;;;;;;5.04;100.00;96505.41;4896752;29;20288;-90
2021/01/11 00:27:09;;;;;;;1.50;1.40;;;;;;;5.08;100.00;96509.41;4896905;29;20200;-89
2021/01/11 00:29:36;;;;;;;1.17;1.07;;;;;;;4.96;100.00;96511.22;4896906;29;20677;-89
2021/01/11 00:32:03;;;;;;;1.33;1.03;;;;;;;5.11;100.00;96496.97;4896585;29;20262;-89
2021/01/11 00:34:31;;;;;;;1.30;1.20;;;;;;;5.10;100.00;96504.94;4896807;29;20263;-89
2021/01/11 00:36:58;;;;;;;1.83;1.17;;;;;;;5.00;100.00;96481.38;4896731;29;20215;-89
2021/01/11 00:39:27;;;;;;;1.73;1.47;;;;;;;5.05;100.00;96475.78;4896962;29;20608;-88
2021/01/11 00:41:57;;;;;;;1.90;1.40;;;;;;;4.91;100.00;96485.50;4896861;29;20204;-89
2021/01/11 00:44:24;;;;;;;2.10;1.90;;;;;;;5.12;100.00;96497.81;4896499;29;20288;-89
2021/01/11 00:46:51;;;;;;;2.70;2.13;;;;;;;5.08;100.00;96494.63;4896353;29;20204;-90
2021/01/11 00:49:18;;;;;;;1.30;1.20;;;;;;;5.10;100.00;96491.91;4896218;29;20240;-89
2021/01/11 00:51:46;;;;;;;1.70;1.60;;;;;;;5.20;100.00;96479.81;4896366;29;20204;-89
2021/01/11 00:54:13;;;;;;;1.30;1.20;;;;;;;5.17;100.00;96483.47;4896410;29;20204;-90
2021/01/11 00:56:40;;;;;;;1.50;1.40;;;;;;;5.21;100.00;96477.06;4896582;29;20560;-89
2021/01/11 00:59:07;;;;;;;1.50;1.40;;;;;;;5.21;100.00;96484.06;4896451;29;20248;-89
2021/01/11 01:01:34;;;;;;;2.10;1.73;;;;;;;5.13;100.00;96478.66;4895539;29;20291;-89
2021/01/11 01:04:01;;;;;;;1.80;1.70;;;;;;;5.06;100.00;96465.25;4896090;29;20207;-89
2021/01/11 01:06:28;;;;;;;1.60;1.50;;;;;;;4.91;100.00;96445.59;4896197;29;20266;-89
2021/01/11 01:08:56;;;;;;;2.20;1.50;;;;;;;4.90;100.00;96447.38;4896547;29;20254;-90
2021/01/11 01:11:23;;;;;;;1.43;1.33;;;;;;;4.96;100.00;96446.91;4896595;29;20208;-89
2021/01/11 01:13:49;;;;;;;0.80;0.77;;;;;;;4.96;100.00;96459.13;4896016;29;20200;-89
2021/01/11 01:16:27;;;;;;;1.43;1.07;;;;;;;4.85;100.00;96452.13;4896195;29;20291;-89
2021/01/11 01:18:54;;;;;;;1.77;1.50;;;;;;;4.97;100.00;96442.53;4895931;29;20188;-89
2021/01/11 01:21:21;;;;;;;3.03;2.20;;;;;;;4.92;100.00;96424.66;4895999;29;20666;-89
2021/01/11 01:23:48;;;;;;;3.30;2.60;;;;;;;4.71;100.00;96424.56;4895920;29;20250;-90
2021/01/11 01:26:16;;;;;;;1.70;1.60;;;;;;;4.98;100.00;96400.72;4896136;29;20204;-89
2021/01/11 01:28:42;;;;;;;0.60;0.60;;;;;;;5.03;100.00;96392.56;4895728;29;20760;-90
2021/01/11 01:31:09;;;;;;;1.27;1.17;;;;;;;5.04;100.00;96396.00;4896090;29;20208;-88
2021/01/11 01:33:36;;;;;;;1.70;1.60;;;;;;;5.13;100.00;96403.91;4895741;29;20261;-89
2021/01/11 01:36:03;;;;;;;1.70;0.80;;;;;;;5.23;100.00;96404.84;4896023;29;20207;-89
2021/01/11 01:38:30;;;;;;;1.47;1.37;;;;;;;5.36;100.00;96402.06;4896075;29;20659;-89
2021/01/11 01:40:57;;;;;;;0.83;0.80;;;;;;;5.33;100.00;96399.69;4896047;29;20692;-89
2021/01/11 01:43:25;;;;;;;0.30;0.30;;;;;;;5.29;100.00;96390.47;4895646;29;20200;-89
2021/01/11 01:45:52;;;;;;;0.50;0.50;;;;;;;5.34;100.00;96387.50;4895912;29;20212;-88
2021/01/11 01:48:19;;;;;;;1.33;1.23;;;;;;;5.31;100.00;96396.41;4895207;29;20243;-89
2021/01/11 01:50:46;;;;;;;1.60;0.83;;;;;;;5.30;100.00;96407.78;4895733;29;20368;-89
2021/01/11 01:53:14;;;;;;;0.43;0.43;;;;;;;5.40;100.00;96403.50;4895508;29;20212;-89
2021/01/11 01:55:42;;;;;;;1.73;1.63;;;;;;;5.37;100.00;96379.41;4895379;28;20208;-89
2021/01/11 01:58:10;;;;;;;0.87;0.73;;;;;;;5.32;100.00;96347.72;4895439;29;20215;-89
2021/01/11 02:00:38;;;;;;;1.40;1.17;;;;;;;5.28;100.00;96343.69;4895691;29;20271;-89
2021/01/11 02:03:05;;;;;;;0.20;0.20;;;;;;;5.18;100.00;96347.03;4895703;29;20204;-89
2021/01/11 02:05:32;;;;;;;1.30;0.90;;;;;;;5.19;100.00;96327.84;4895500;29;20291;-88
2021/01/11 02:08:09;;;;;;;0.53;0.53;;;;;;;5.19;100.00;96340.88;4895306;29;20206;-88
2021/01/11 02:10:55;;;;;;;0.73;0.70;;;;;;;5.17;100.00;96353.22;4895700;29;20620;-89
2021/01/11 02:13:50;;;;;;;0.80;0.80;;;;;;;5.34;100.00;96375.31;4894346;29;20199;-89
2021/01/11 02:16:26;;;;;;;3.17;2.27;;;;;;;5.31;100.00;96388.59;4899122;29;20243;-89
2021/01/11 02:19:01;;;;;;;12.93;9.87;;;;;;;5.40;100.00;96384.38;4895608;29;20199;-89
2021/01/11 02:22:03;;;;;;;1.70;1.60;;;;;;;5.44;100.00;96378.00;4895221;29;20192;-89
2021/01/11 02:25:03;;;;;;;0.77;0.77;;;;;;;5.61;100.00;96369.63;4905067;29;20214;-89
2021/01/11 02:27:38;;;;;;;0.40;0.40;;;;;;;5.42;100.00;96352.03;4895182;29;20188;-89
2021/01/11 02:30:22;;;;;;;1.00;1.00;;;;;;;5.39;100.00;96348.88;4894918;29;20251;-89
2021/01/11 02:32:53;;;;;;;1.40;1.30;;;;;;;5.42;100.00;96367.69;4895060;29;20224;-89
2021/01/11 02:35:22;;;;;;;1.87;1.43;;;;;;;5.38;100.00;96366.28;4894925;29;20197;-89
2021/01/11 02:37:49;;;;;;;1.50;1.40;;;;;;;5.37;100.00;96354.22;4894996;29;20211;-88
2021/01/11 02:40:16;;;;;;;1.30;1.20;;;;;;;5.33;100.00;96320.69;4894869;29;20207;-89
2021/01/11 02:42:43;;;;;;;0.63;0.53;;;;;;;5.29;100.00;96324.50;4895171;29;20201;-90
2021/01/11 02:45:11;;;;;;;4.93;3.80;;;;;;;5.34;100.00;96328.41;4895181;29;20196;-89
2021/01/11 02:47:59;;;;;;;1.50;1.40;;;;;;;5.31;100.00;96323.44;4894576;29;20330;-90
2021/01/11 02:50:27;;;;;;;0.77;0.77;;;;;;;5.37;100.00;96322.09;4895142;29;20629;-90
2021/01/11 02:53:06;;;;;;;8.23;5.00;;;;;;;5.15;100.00;96307.38;4894722;28;20258;-90
2021/01/11 02:55:40;;;;;;;0.60;0.57;;;;;;;5.08;100.00;96280.16;4894834;29;20199;-89
2021/01/11 02:58:13;;;;;;;6.57;4.83;;;;;;;5.19;100.00;96269.69;4895010;29;20196;-89
2021/01/11 03:00:43;;;;;;;3.30;2.40;;;;;;;5.19;100.00;96277.50;4895000;29;20596;-89
2021/01/11 03:03:14;;;;;;;6.37;1.57;;;;;;;5.14;100.00;96270.06;4894950;29;20287;-89
2021/01/11 03:05:41;;;;;;;1.00;0.70;;;;;;;5.05;100.00;96286.44;4894650;29;20185;-89
2021/01/11 03:08:08;;;;;;;0.93;0.93;;;;;;;5.08;100.00;96307.03;4894568;29;20240;-89
2021/01/11 03:10:35;;;;;;;0.67;0.67;;;;;;;5.09;100.00;96326.09;4894399;29;20235;-89
2021/01/11 03:13:02;;;;;;;1.50;1.10;;;;;;;5.10;100.00;96322.56;4894763;29;20197;-89
2021/01/11 03:15:29;;;;;;;1.20;1.10;;;;;;;5.09;100.00;96339.13;4894704;29;20295;-89
2021/01/11 03:17:56;;;;;;;2.00;1.90;;;;;;;5.20;100.00;96332.13;4894725;29;20228;-89
2021/01/11 03:20:24;;;;;;;3.03;2.50;;;;;;;5.13;100.00;96328.34;4894343;29;20232;-89
2021/01/11 03:22:51;;;;;;;3.50;3.30;;;;;;;5.15;100.00;96317.78;4894450;29;20204;-90
2021/01/11 03:25:17;;;;;;;0.97;0.97;;;;;;;5.19;100.00;96327.00;4896554;29;20279;-89
2021/01/11 03:27:44;;;;;;;2.37;2.17;;;;;;;4.95;100.00;96338.47;4897459;29;20268;-88
2021/01/11 03:30:12;;;;;;;2.80;1.87;;;;;;;4.99;100.00;96346.88;4897525;29;20236;-89
2021/01/11 03:32:39;;;;;;;3.40;3.03;;;;;;;4.76;100.00;96344.28;4897403;29;20204;-88
2021/01/11 03:35:07;;;;;;;1.70;1.60;;;;;;;4.89;100.00;96333.75;4897645;29;20760;-89
2021/01/11 03:37:34;;;;;;;2.60;2.40;;;;;;;4.92;100.00;96335.28;4897329;29;20303;-89
2021/01/11 03:40:01;;;;;;;0.50;0.50;;;;;;;4.99;100.00;96333.84;4897436;29;20307;-89
2021/01/11 03:42:28;;;;;;;13.97;7.37;;;;;;;4.96;100.00;96316.69;4897300;29;20315;-89
2021/01/11 03:44:55;;;;;;;8.10;5.60;;;;;;;4.92;100.00;96333.50;4897343;29;20211;-88
2021/01/11 03:47:22;;;;;;;3.73;3.43;;;;;;;4.88;100.00;96331.25;4897311;29;20240;-88
2021/01/11 03:49:49;;;;;;;1.40;1.30;;;;;;;4.92;100.00;96325.69;4897758;29;20652;-88
2021/01/11 03:52:15;;;;;;;3.13;2.83;;;;;;;4.96;100.00;96324.50;4897418;29;20300;-89
2021/01/11 03:54:43;;;;;;;7.67;6.40;;;;;;;4.94;100.00;96307.31;4897164;29;20255;-89
2021/01/11 03:57:10;;;;;;;9.67;6.20;;;;;;;4.88;100.00;96313.84;4897377;29;20669;-89
2021/01/11 03:59:37;;;;;;;16.07;10.07;;;;;;;4.91;100.00;96321.41;4897111;29;20291;-90
2021/01/11 04:02:04;;;;;;;7.00;4.83;;;;;;;4.90;100.00;96324.97;4897446;29;20231;-89
2021/01/11 04:04:31;;;;;;;12.67;7.33;;;;;;;5.00;100.00;96322.47;4897073;29;20200;-89
2021/01/11 04:06:58;;;;;;;5.07;3.37;;;;;;;4.97;100.00;96326.13;4896987;29;20212;-89
2021/01/11 04:09:25;;;;;;;3.83;3.20;;;;;;;4.92;100.00;96343.94;4897242;29;20662;-87
2021/01/11 04:11:53;;;;;;;3.50;2.83;;;;;;;4.98;100.00;96346.00;4897298;29;20200;-87
2021/01/11 04:14:20;;;;;;;3.07;2.17;;;;;;;5.04;100.00;96351.72;4896944;29;20295;-87
2021/01/11 04:16:47;;;;;;;2.30;2.10;;;;;;;5.13;100.00;96343.97;4897134;29;20593;-87
2021/01/11 04:19:14;;;;;;;0.83;0.80;;;;;;;4.97;100.00;96328.75;4897004;29;20201;-87
2021/01/11 04:21:42;;;;;;;1.33;0.60;;;;;;;4.88;100.00;96329.47;4897030;29;20250;-87
2021/01/11 04:24:09;;;;;;;0.67;0.67;;;;;;;4.81;100.00;96320.47;4896838;29;20254;-87
2021/01/11 04:26:36;;;;;;;0.70;0.70;;;;;;;4.91;100.00;96331.00;4897074;29;20291;-88
2021/01/11 04:29:04;;;;;;;0.70;0.70;;;;;;;4.92;100.00;96348.31;4896591;29;20271;-88
2021/01/11 04:31:30;;;;;;;2.10;0.90;;;;;;;4.76;100.00;96349.50;4896712;29;20291;-87
2021/01/11 04:33:57;;;;;;;0.90;0.50;;;;;;;4.74;100.00;96333.16;4896616;29;20740;-88
2021/01/11 04:36:24;;;;;;;0.73;0.73;;;;;;;4.63;100.00;96337.56;4896918;29;20203;-87
2021/01/11 04:39:10;;;;;;;;;;;;;;;;;;;;;
2021/01/11 04:41:41;;;;;;;1.77;1.67;;;;;;;4.61;100.00;96321.25;4914552;28;20202;-88
2021/01/11 04:44:12;;;;;;;1.27;1.17;;;;;;;4.55;100.00;96324.34;4910979;28;20212;-89
2021/01/11 04:46:39;;;;;;;1.53;1.33;;;;;;;4.48;100.00;96321.38;4895934;29;20203;-88
2021/01/11 04:49:07;;;;;;;1.50;1.40;;;;;;;4.47;100.00;96310.16;4895417;29;20248;-88
2021/01/11 04:51:39;;;;;;;1.93;1.53;;;;;;;4.44;100.00;96302.56;4895593;29;20204;-89
2021/01/11 04:54:08;;;;;;;2.80;2.60;;;;;;;4.41;100.00;96295.00;4896002;29;20279;-90
2021/01/11 04:56:40;;;;;;;3.00;2.70;;;;;;;4.41;100.00;96309.78;4895601;28;20232;-88
2021/01/11 04:59:19;;;;;;;2.27;2.07;;;;;;;4.38;100.00;96333.44;4895413;29;20255;-92
2021/01/11 05:01:49;;;;;;;1.53;1.43;;;;;;;4.47;100.00;96343.97;4896280;29;20200;-93
2021/01/11 05:04:16;;;;;;;1.90;1.80;;;;;;;4.58;100.00;96347.53;4895946;29;20200;-88
2021/01/11 05:06:46;;;;;;;1.63;1.50;;;;;;;4.49;100.00;96336.03;4895710;29;20200;-90
2021/01/11 05:09:14;;;;;;;2.00;1.87;;;;;;;4.50;100.00;96340.28;4895366;29;20243;-90
2021/01/11 05:11:50;;;;;;;2.50;2.30;;;;;;;4.55;100.00;96319.94;4896725;29;20204;-90
2021/01/11 05:14:18;;;;;;;3.03;2.83;;;;;;;4.57;100.00;96358.88;4896442;29;20204;-90
2021/01/11 05:17:03;;;;;;;4.00;3.70;;;;;;;4.49;100.00;96373.31;4896309;29;20208;-89
2021/01/11 05:19:30;;;;;;;7.93;5.50;;;;;;;4.52;100.00;96365.25;4895907;29;20188;-89
2021/01/11 05:21:57;;;;;;;3.83;3.33;;;;;;;4.54;100.00;96375.56;4896307;29;20212;-89
2021/01/11 05:24:35;;;;;;;4.73;3.23;;;;;;;4.62;100.00;96381.00;4896395;29;20228;-88
2021/01/11 05:27:04;;;;;;;4.23;3.10;;;;;;;4.56;100.00;96393.66;4896209;28;20295;-89
2021/01/11 05:29:33;;;;;;;3.77;3.30;;;;;;;4.76;100.00;96401.59;4896137;29;20282;-89
2021/01/11 05:32:01;;;;;;;18.63;10.83;;;;;;;4.65;100.00;96409.41;4895778;29;20200;-89
2021/01/11 05:34:45;;;;;;;14.60;11.13;;;;;;;4.73;100.00;96411.41;4895829;29;20208;-89
2021/01/11 05:37:32;;;;;;;13.87;12.23;;;;;;;4.73;100.00;96395.78;4895663;29;20240;-89
2021/01/11 05:40:13;;;;;;;6.47;5.43;;;;;;;4.83;100.00;96360.25;4895719;29;20208;-89
2021/01/11 05:42:41;;;;;;;5.97;5.37;;;;;;;4.94;100.00;96365.44;4896052;29;20195;-90
2021/01/11 05:45:14;;;;;;;4.70;3.60;;;;;;;4.82;100.00;96360.41;4896009;29;20287;-89
2021/01/11 05:47:58;;;;;;;18.87;11.70;;;;;;;4.74;100.00;96358.38;4895487;29;20268;-89
2021/01/11 05:50:27;;;;;;;8.80;7.90;;;;;;;4.87;100.00;96358.25;4895461;29;20213;-89
2021/01/11 05:52:54;;;;;;;4.13;3.83;;;;;;;4.81;100.00;96369.97;4895846;29;20287;-89
2021/01/11 05:55:21;;;;;;;13.63;8.97;;;;;;;4.79;100.00;96384.91;4895667;29;20243;-88
2021/01/11 05:57:55;;;;;;;8.63;7.83;;;;;;;4.86;100.00;96393.06;4895968;28;20286;-89
2021/01/11 06:00:25;;;;;;;6.23;5.67;;;;;;;4.79;100.00;96434.38;4895427;29;20231;-89
2021/01/11 06:02:54;;;;;;;5.60;5.10;;;;;;;4.77;100.00;96450.09;4895502;29;20223;-89
2021/01/11 06:05:21;;;;;;;6.80;4.40;;;;;;;4.75;100.00;96456.38;4895277;29;20208;-88
2021/01/11 06:07:48;;;;;;;6.83;4.97;;;;;;;4.91;100.00;96469.88;4895689;29;20212;-87
2021/01/11 06:10:17;;;;;;;4.47;3.17;;;;;;;4.92;100.00;96476.75;4895161;29;20283;-88
2021/01/11 06:12:45;;;;;;;6.20;3.63;;;;;;;4.75;100.00;96490.25;4895313;29;20284;-88
2021/01/11 06:15:14;;;;;;;7.43;6.20;;;;;;;4.91;100.00;96508.94;4895296;29;20200;-89
2021/01/11 06:17:43;;;;;;;8.73;7.27;;;;;;;4.92;100.00;96515.81;4895203;29;20231;-88
2021/01/11 06:20:14;;;;;;;7.33;5.77;;;;;;;4.85;100.00;96522.44;4895565;29;20201;-88
2021/01/11 06:23:03;;;;;;;3.40;3.10;;;;;;;4.83;100.00;96519.13;4895413;29;20193;-88
2021/01/11 06:25:37;;;;;;;2.00;1.80;;;;;;;4.73;100.00;96497.31;4895302;29;20197;-88
2021/01/11 06:28:06;;;;;;;9.67;5.13;;;;;;;4.81;100.00;96475.91;4895140;29;20266;-88
2021/01/11 06:30:36;;;;;;;4.23;3.43;;;;;;;4.80;100.00;96475.09;4895371;29;20263;-88
2021/01/11 06:33:09;;;;;;;18.67;7.73;;;;;;;4.72;100.00;96452.25;4895267;29;20598;-89
2021/01/11 06:35:37;;;;;;;69.87;11.13;;;;;;;4.94;100.00;96422.75;4894991;29;20279;-89
2021/01/11 06:38:18;;;;;;;48.63;10.47;;;;;;;4.93;100.00;96348.19;4895332;29;20204;-88
2021/01/11 06:40:47;;;;;;;100.47;15.23;;;;;;;4.98;100.00;96325.19;4895081;29;20197;-88
2021/01/11 06:43:15;;;;;;;14.63;9.67;;;;;;;5.18;100.00;96318.38;4895268;29;20652;-88
2021/01/11 06:45:43;;;;;;;11.63;10.53;;;;;;;5.15;100.00;96362.09;4895009;29;20701;-88
2021/01/11 06:48:15;;;;;;;8.97;8.17;;;;;;;5.21;100.00;96379.84;4894664;29;20246;-89
2021/01/11 06:50:44;;;;;;;11.23;10.03;;;;;;;5.03;100.00;96405.59;4895023;29;20271;-89
2021/01/11 06:53:11;;;;;;;8.00;7.27;;;;;;;5.05;100.00;96397.63;4895119;29;20728;-89
2021/01/11 06:55:38;;;;;;;19.43;14.77;;;;;;;5.10;100.00;96421.56;4895173;29;20209;-89
2021/01/11 06:58:05;;;;;;;29.97;20.37;;;;;;;5.17;100.00;96420.94;4895129;29;20205;-87
2021/01/11 07:00:35;;;;;;;29.07;18.67;;;;;;;5.19;100.00;96433.84;4897265;29;20247;-89
2021/01/11 07:03:03;;;;;;;7.57;6.87;;;;;;;5.34;100.00;96424.00;4898322;29;20255;-89
2021/01/11 07:05:49;;;;;;;5.47;3.27;;;;;;;5.29;100.00;96418.31;4897933;29;20204;-89
2021/01/11 07:08:20;;;;;;;5.53;5.10;;;;;;;5.34;100.00;96388.34;4898258;29;20232;-89
2021/01/11 07:11:03;;;;;;;2.10;2.00;;;;;;;5.34;100.00;96344.03;4898231;29;20291;-89
2021/01/11 07:13:31;;;;;;;1.97;1.87;;;;;;;5.32;100.00;96353.75;4898147;29;20189;-89
2021/01/11 07:16:16;;;;;;;2.50;2.30;;;;;;;5.38;100.00;96402.78;4898276;29;20200;-89
2021/01/11 07:18:51;;;;;;;12.87;2.60;;;;;;;5.42;100.00;96393.75;4897968;29;20201;-89
2021/01/11 07:21:23;;;;;;;11.00;2.73;;;;;;;5.44;100.00;96385.81;4898393;29;20208;-88
2021/01/11 07:23:51;;;;;;;11.93;3.43;;;;;;;5.43;100.00;96381.53;4898160;29;20189;-91
2021/01/11 07:26:19;;;;;;;32.83;7.07;;;;;;;5.53;100.00;96373.81;4897553;29;20255;-91
2021/01/11 07:28:54;;;;;;;4.17;3.77;;;;;;;5.48;100.00;96361.16;4897540;29;20213;-90
2021/01/11 07:31:26;;;;;;;3.83;3.53;;;;;;;5.57;100.00;96367.38;4897927;29;20214;-91
2021/01/11 07:34:06;;;;;;;4.73;4.33;;;;;;;5.60;100.00;96357.53;4897492;29;20257;-91
2021/01/11 07:36:38;;;;;;;9.07;4.40;;;;;;;5.61;100.00;96369.63;4897584;29;20255;-91
2021/01/11 07:39:16;;;;;;;4.00;3.20;;;;;;;5.65;100.00;96360.59;4897983;28;20184;-91
2021/01/11 07:41:45;;;;;;;3.33;3.03;;;;;;;5.72;100.00;96369.59;4897655;29;20705;-91
2021/01/11 07:44:18;;;;;;;2.63;2.43;;;;;;;5.60;100.00;96365.34;4897694;29;20208;-91
2021/01/11 07:46:51;;;;;;;4.23;2.63;;;;;;;5.55;100.00;96379.75;4897822;29;20321;-90
2021/01/11 07:49:18;;;;;;;5.67;3.37;;;;;;;5.55;100.00;96411.03;4897346;29;20240;-91
2021/01/11 07:51:48;;;;;;;5.27;4.83;;;;;;;5.62;100.00;96443.47;4897378;29;20259;-91
2021/01/11 07:54:17;;;;;;;10.10;8.53;;;;;;;5.82;100.00;96455.72;4897421;29;20250;-91
2021/01/11 07:56:44;;;;;;;10.77;7.20;;;;;;;5.91;100.00;96473.22;4897577;29;20283;-90
2021/01/11 07:59:11;;;;;;;18.27;9.83;;;;;;;5.92;100.00;96485.38;4897440;29;20643;-91
2021/01/11 08:01:41;;;;;;;11.23;7.30;;;;;;;5.98;100.00;96493.63;4897227;29;20583;-90
2021/01/11 08:04:09;;;;;;;26.33;10.50;;;;;;;5.99;100.00;96496.09;4897038;29;20307;-90
2021/01/11 08:06:49;;;;;;;17.70;9.67;;;;;;;5.67;100.00;96506.50;4897280;29;20200;-90
2021/01/11 08:09:17;;;;;;;3.03;2.83;;;;;;;5.62;100.00;96499.06;4897276;29;20375;-89
2021/01/11 08:11:44;;;;;;;7.80;3.90;;;;;;;5.82;100.00;96497.47;4897176;29;20646;-90
2021/01/11 08:14:12;;;;;;;2.87;2.67;;;;;;;5.77;100.00;96497.00;4897361;29;20204;-90
2021/01/11 08:16:41;;;;;;;7.50;3.80;;;;;;;5.80;100.00;96501.97;4897088;29;20259;-90
2021/01/11 08:19:09;;;;;;;9.40;7.50;;;;;;;5.98;100.00;96498.84;4897018;29;20206;-90
2021/01/11 08:21:37;;;;;;;12.00;7.73;;;;;;;5.99;100.00;96495.28;4897157;29;20644;-90
2021/01/11 08:24:07;;;;;;;18.13;16.23;;;;;;;5.88;100.00;96493.50;4897061;29;20616;-90
2021/01/11 08:26:43;;;;;;;23.93;20.33;;;;;;;5.92;100.00;96487.97;4897159;29;20541;-91
2021/01/11 08:29:11;;;;;;;16.80;15.03;;;;;;;5.91;100.00;96491.47;4896757;29;20707;-89
2021/01/11 08:31:39;;;;;;;11.27;10.17;;;;;;;5.97;100.00;96503.25;4896782;29;20208;-91
2021/01/11 08:34:07;;;;;;;7.63;6.83;;;;;;;5.88;100.00;96501.34;4896918;29;20287;-90
2021/01/11 08:36:34;;;;;;;23.77;21.20;;;;;;;5.85;100.00;96497.19;4896626;29;20211;-92
2021/01/11 08:39:07;;;;;;;13.50;12.20;;;;;;;6.03;100.00;96488.88;4896537;29;20204;-91
2021/01/11 08:41:35;;;;;;;9.27;8.27;;;;;;;6.04;100.00;96487.91;4897099;29;20203;-91
2021/01/11 08:44:02;;;;;;;6.40;5.80;;;;;;;6.26;100.00;96486.97;4896707;29;20213;-91
2021/01/11 08:47:00;;;;;;;7.13;6.43;;;;;;;6.21;100.00;96461.28;4896535;29;20343;-91
2021/01/11 08:49:28;;;;;;;7.73;6.97;;;;;;;6.01;100.00;96455.06;4896465;29;20717;-91
2021/01/11 08:52:08;;;;;;;8.23;7.47;;;;;;;6.14;100.00;96447.91;4896667;29;20235;-92
2021/01/11 08:54:37;;;;;;;8.97;8.17;;;;;;;6.21;100.00;96469.09;4896433;29;20185;-91
2021/01/11 08:57:14;;;;;;;6.37;5.77;;;;;;;6.12;100.00;96477.69;4896402;28;20196;-92
2021/01/11 08:59:51;;;;;;;5.17;4.40;;;;;;;6.21;100.00;96478.72;4896335;29;20185;-90
2021/01/11 09:02:24;;;;;;;6.57;5.97;;;;;;;6.28;100.00;96477.25;4896471;29;20248;-91
2021/01/11 09:04:51;;;;;;;5.67;5.07;;;;;;;6.46;100.00;96483.56;4896204;29;20291;-91
2021/01/11 09:07:28;;;;;;;6.90;6.13;;;;;;;6.73;100.00;96490.88;4896524;29;20287;-91
2021/01/11 09:09:56;;;;;;;3.00;2.70;;;;;;;6.82;100.00;96505.78;4896644;29;20222;-91
2021/01/11 09:12:34;;;;;;;22.00;15.60;;;;;;;6.84;100.00;96492.56;4896314;29;20259;-91
2021/01/11 09:15:02;;;;;;;9.17;7.27;;;;;;;6.81;100.00;96467.53;4896277;29;20274;-91
2021/01/11 09:17:30;;;;;;;10.70;9.00;;;;;;;6.59;100.00;96452.84;4896047;29;20700;-91
2021/01/11 09:20:00;;;;;;;8.97;7.87;;;;;;;6.68;100.00;96446.00;4896261;29;20207;-92
2021/01/11 09:22:33;;;;;;;12.77;10.00;;;;;;;6.66;100.00;96459.22;4896036;29;20262;-91
2021/01/11 09:25:03;;;;;;;6.80;5.70;;;;;;;6.64;100.00;96462.91;4895930;29;20646;-92
2021/01/11 09:27:30;;;;;;;5.27;4.27;;;;;;;6.81;100.00;96472.75;4895993;29;20196;-91
2021/01/11 09:29:57;;;;;;;9.03;5.73;;;;;;;6.70;100.00;96472.84;4896105;29;20775;-92
2021/01/11 09:32:24;;;;;;;3.73;3.43;;;;;;;6.66;100.00;96464.44;4895827;29;20215;-91
2021/01/11 09:34:51;;;;;;;4.80;4.30;;;;;;;6.57;100.00;96464.38;4896247;29;20227;-92
2021/01/11 09:37:21;;;;;;;7.20;6.27;;;;;;;6.59;100.00;96465.91;4895934;29;20200;-92
2021/01/11 09:39:51;;;;;;;7.10;6.07;;;;;;;6.76;100.00;96464.47;4895787;29;20708;-92
2021/01/11 09:42:18;;;;;;;3.70;3.40;;;;;;;6.78;100.00;96449.50;4895961;29;20566;-91
2021/01/11 09:44:45;;;;;;;3.53;3.23;;;;;;;6.52;100.00;96469.16;4895959;29;20200;-91
2021/01/11 09:47:12;;;;;;;4.07;3.50;;;;;;;6.60;100.00;96482.41;4895524;29;20196;-92
2021/01/11 09:49:39;;;;;;;5.50;4.93;;;;;;;6.63;100.00;96466.47;4895491;29;20215;-92
2021/01/11 09:52:06;;;;;;;4.20;3.80;;;;;;;6.62;100.00;96455.19;4895731;29;20291;-92
2021/01/11 09:54:33;;;;;;;4.97;4.43;;;;;;;6.63;100.00;96476.91;4895575;29;20792;-92
2021/01/11 09:57:00;;;;;;;6.63;4.97;;;;;;;6.60;100.00;96466.72;4895838;29;20618;-91
2021/01/11 09:59:28;;;;;;;5.83;5.23;;;;;;;6.68;100.00;96459.06;4895577;29;20278;-92
2021/01/11 10:01:55;;;;;;;8.80;7.87;;;;;;;6.76;100.00;96461.06;4895850;29;20673;-91
2021/01/11 10:04:22;;;;;;;5.00;4.50;;;;;;;6.85;100.00;96452.41;4895579;29;20196;-91
2021/01/11 10:06:50;;;;;;;4.93;4.43;;;;;;;6.69;100.00;96413.72;4895737;29;20204;-91
2021/01/11 10:09:19;;;;;;;5.60;5.20;;;;;;;6.88;100.00;96371.16;4895322;29;20596;-91
2021/01/11 10:11:47;;;;;;;5.40;4.93;;;;;;;6.86;100.00;96366.06;4895333;29;20211;-92
2021/01/11 10:14:14;;;;;;;4.33;3.93;;;;;;;6.81;100.00;96393.56;4895501;29;20234;-92
2021/01/11 10:16:44;;;;;;;11.83;10.23;;;;;;;6.75;100.00;96400.13;4895566;29;20561;-91
2021/01/11 10:19:15;;;;;;;11.47;7.93;;;;;;;6.59;100.00;96446.81;4895399;29;20258;-91
2021/01/11 10:21:41;;;;;;;7.03;6.00;;;;;;;6.66;100.00;96432.25;4895189;29;20188;-91
2021/01/11 10:24:10;;;;;;;7.73;6.27;;;;;;;6.53;100.00;96432.47;4895177;29;20205;-92
2021/01/11 10:26:37;;;;;;;9.00;8.10;;;;;;;6.51;100.00;96420.50;4895268;29;20200;-91
2021/01/11 10:29:04;;;;;;;7.33;6.63;;;;;;;6.42;100.00;96438.59;4895225;29;20208;-91
2021/01/11 10:31:31;;;;;;;15.13;13.67;;;;;;;6.58;100.00;96427.69;4895310;29;20295;-91
2021/01/11 10:33:59;;;;;;;14.43;9.90;;;;;;;6.48;100.00;96423.34;4895480;29;20232;-91
2021/01/11 10:36:26;;;;;;;13.60;12.20;;;;;;;6.36;100.00;96417.41;4898480;29;20210;-92
2021/01/11 10:38:53;;;;;;;8.73;7.83;;;;;;;6.30;100.00;96423.13;4898745;29;20204;-92
2021/01/11 10:41:21;;;;;;;8.70;7.27;;;;;;;6.54;100.00;96422.84;4898690;29;20219;-92
2021/01/11 10:43:49;;;;;;;13.97;7.27;;;;;;;6.58;100.00;96404.19;4898204;29;20200;-92
2021/01/11 10:46:16;;;;;;;9.97;7.50;;;;;;;6.61;100.00;96414.34;4898225;29;20208;-92
2021/01/11 10:48:43;;;;;;;16.40;6.53;;;;;;;6.45;100.00;96413.19;4898270;29;20721;-92
2021/01/11 10:51:12;;;;;;;17.47;8.07;;;;;;;6.53;100.00;96419.41;4898451;28;20267;-92
2021/01/11 10:53:39;;;;;;;14.70;9.43;;;;;;;6.62;100.00;96415.22;4898155;29;20211;-92
2021/01/11 10:56:07;;;;;;;24.23;9.83;;;;;;;6.42;100.00;96425.53;4898600;29;20240;-92
2021/01/11 10:58:34;;;;;;;19.67;15.10;;;;;;;6.45;100.00;96414.03;4898581;29;20204;-92
2021/01/11 11:01:01;;;;;;;10.17;9.17;;;;;;;6.58;100.00;96412.03;4898346;29;20204;-93
2021/01/11 11:03:28;;;;;;;8.60;7.57;;;;;;;6.52;100.00;96416.94;4898248;29;20219;-92
2021/01/11 11:05:55;;;;;;;10.37;9.07;;;;;;;6.31;100.00;96406.53;4898016;29;20208;-91
2021/01/11 11:08:23;;;;;;;12.50;9.90;;;;;;;6.24;100.00;96400.16;4898012;28;20204;-91
2021/01/11 11:10:50;;;;;;;10.87;9.70;;;;;;;6.22;100.00;96420.34;4898063;29;20239;-92
2021/01/11 11:13:17;;;;;;;8.70;7.90;;;;;;;6.27;100.00;96399.88;4897825;29;20295;-92
2021/01/11 11:15:44;;;;;;;12.17;10.97;;;;;;;6.39;100.00;96386.63;4898117;29;20205;-92
2021/01/11 11:18:11;;;;;;;7.10;6.20;;;;;;;6.42;100.00;96402.03;4898156;29;20208;-91
2021/01/11 11:20:38;;;;;;;5.27;4.77;;;;;;;6.44;100.00;96399.28;4897846;29;20197;-91
2021/01/11 11:23:08;;;;;;;3.53;3.23;;;;;;;6.39;100.00;96401.47;4898226;29;20204;-91
2021/01/11 11:25:36;;;;;;;4.13;3.73;;;;;;;6.47;100.00;96393.81;4897827;29;20262;-92
2021/01/11 11:28:03;;;;;;;8.77;6.87;;;;;;;6.59;100.00;96386.75;4897625;29;20212;-92
2021/01/11 11:30:30;;;;;;;9.53;8.67;;;;;;;6.51;100.00;96384.78;4897776;29;20232;-91
2021/01/11 11:32:57;;;;;;;5.50;5.00;;;;;;;6.60;100.00;96388.38;4897602;29;20208;-91
2021/01/11 11:35:24;;;;;;;5.43;4.90;;;;;;;6.48;100.00;96407.69;4897691;29;20201;-92
2021/01/11 11:37:51;;;;;;;8.47;7.53;;;;;;;6.50;100.00;96411.00;4897578;29;20295;-91
2021/01/11 11:40:19;;;;;;;9.27;8.10;;;;;;;6.47;100.00;96400.81;4897800;29;20251;-92
2021/01/11 11:42:47;;;;;;;12.77;9.90;;;;;;;6.40;100.00;96398.72;4897461;29;20244;-91